Time;durP1;ratioP1;P1;durP2;ratioP2;P2;SDS_P1;SDS_P2;PMS_P1;PMS_P2;Temp;Humidity;BMP_temperature;BMP_pressure;BME280_temperature;BME280_humidity;BME280_pressure;Samples;Min_cycle;Max_cycle;Signal;HPM_P1;HPM_P2
2023/06/21 00:02:15;;;;;;;16.80;15.35;;;;;;;21.52;100.00;99024.50;5115143;28;20187;-76
2023/06/21 00:04:41;;;;;;;16.00;14.65;;;;;;;21.46;100.00;99021.09;5115352;28;20226;-76
2023/06/21 00:07:08;;;;;;;16.55;15.35;;;;;;;21.34;100.00;99025.44;5113965;28;20190;-76
2023/06/21 00:09:35;;;;;;;16.77;15.57;;;;;;;21.32;100.00;99027.69;5115093;28;20196;-76
2023/06/21 00:12:01;;;;;;;16.40;15.20;;;;;;;21.25;100.00;99022.63;5115116;28;20192;-76
2023/06/21 00:14:28;;;;;;;16.88;15.38;;;;;;;21.22;100.00;99017.81;5114662;28;20244;-76
2023/06/21 00:16:55;;;;;;;16.40;15.20;;;;;;;21.19;100.00;99015.66;5114987;28;20230;-76
2023/06/21 00:19:21;;;;;;;17.30;15.88;;;;;;;21.20;100.00;99025.47;5107124;28;20255;-76
2023/06/21 00:21:48;;;;;;;17.15;15.77;;;;;;;21.20;100.00;99027.38;5114230;28;20195;-76
2023/06/21 00:24:15;;;;;;;17.25;15.95;;;;;;;21.21;100.00;99026.28;5115283;28;20192;-76
2023/06/21 00:26:42;;;;;;;16.52;15.13;;;;;;;21.16;100.00;99026.38;5109682;28;20589;-76
2023/06/21 00:29:12;;;;;;;17.15;15.68;;;;;;;21.14;100.00;99034.84;5114909;28;20635;-77
2023/06/21 00:31:39;;;;;;;16.77;15.52;;;;;;;21.10;100.00;99028.34;5095757;28;20217;-75
2023/06/21 00:34:06;;;;;;;16.38;15.15;;;;;;;21.06;100.00;99030.88;5114696;28;20252;-76
2023/06/21 00:36:32;;;;;;;17.98;16.63;;;;;;;21.03;100.00;99030.69;5090778;28;20280;-76
2023/06/21 00:38:59;;;;;;;17.50;16.20;;;;;;;20.98;100.00;99042.47;5111685;28;20187;-76
2023/06/21 00:41:26;;;;;;;17.05;15.65;;;;;;;20.95;100.00;99045.78;5089299;28;20203;-76
2023/06/21 00:43:52;;;;;;;17.60;16.20;;;;;;;20.92;100.00;99046.41;5094587;28;20204;-76
2023/06/21 00:46:19;;;;;;;17.77;16.20;;;;;;;20.88;100.00;99041.84;5110128;28;20195;-77
2023/06/21 00:48:46;;;;;;;17.40;16.00;;;;;;;20.84;100.00;99049.03;5114573;28;20579;-77
2023/06/21 00:51:13;;;;;;;17.83;16.52;;;;;;;20.86;100.00;99055.75;5114176;28;20658;-78
2023/06/21 00:53:41;;;;;;;17.98;16.48;;;;;;;20.86;100.00;99063.13;5076924;28;20266;-76
2023/06/21 00:56:08;;;;;;;16.88;15.68;;;;;;;20.83;100.00;99067.28;5090306;28;20589;-76
2023/06/21 00:58:34;;;;;;;18.10;16.60;;;;;;;20.82;100.00;99075.72;5071117;28;20221;-76
2023/06/21 01:01:01;;;;;;;18.33;17.00;;;;;;;20.80;100.00;99076.03;5114042;28;20193;-76
2023/06/21 01:03:28;;;;;;;19.05;17.35;;;;;;;20.77;100.00;99086.69;5089964;28;20221;-77
2023/06/21 01:06:22;;;;;;;18.13;16.63;;;;;;;20.72;100.00;99086.81;5109892;28;20199;-77
2023/06/21 01:09:17;;;;;;;19.25;17.55;;;;;;;20.69;100.00;99082.75;5090485;28;20196;-77
2023/06/21 01:12:07;;;;;;;18.83;17.20;;;;;;;20.66;100.00;99083.38;5110688;28;20193;-76
2023/06/21 01:14:44;;;;;;;19.08;17.58;;;;;;;20.62;100.00;99074.97;5078655;28;20622;-76
2023/06/21 01:17:11;;;;;;;18.25;16.85;;;;;;;20.55;100.00;99069.13;5083045;28;20203;-75
2023/06/21 01:19:51;;;;;;;18.33;16.92;;;;;;;20.50;100.00;99061.03;5087128;28;20560;-76
2023/06/21 01:22:21;;;;;;;19.33;17.90;;;;;;;20.48;100.00;99055.06;5112479;28;20298;-76
2023/06/21 01:25:04;;;;;;;19.30;17.70;;;;;;;20.47;100.00;99055.41;5092911;28;20209;-76
2023/06/21 01:27:42;;;;;;;19.23;17.80;;;;;;;20.46;100.00;99054.59;5111712;28;20657;-76
2023/06/21 01:30:10;;;;;;;18.67;17.20;;;;;;;20.43;100.00;99049.75;5088453;28;20191;-78
2023/06/21 01:32:38;;;;;;;18.70;17.10;;;;;;;20.44;100.00;99067.66;5076496;28;20218;-77
2023/06/21 01:35:05;;;;;;;20.13;18.63;;;;;;;20.46;100.00;99087.22;5085219;28;20192;-78
2023/06/21 01:37:32;;;;;;;19.83;18.02;;;;;;;20.50;100.00;99110.03;5092144;28;20204;-80
2023/06/21 01:39:59;;;;;;;20.08;18.58;;;;;;;20.51;100.00;99138.03;5105195;28;20416;-78
2023/06/21 01:42:26;;;;;;;20.13;18.50;;;;;;;20.55;100.00;99164.38;5090732;28;20278;-76
2023/06/21 01:44:53;;;;;;;22.50;20.80;;;;;;;20.55;100.00;99188.84;5098696;28;20640;-75
2023/06/21 01:47:20;;;;;;;21.70;19.95;;;;;;;20.50;100.00;99186.22;5064495;28;20204;-77
2023/06/21 01:49:47;;;;;;;21.58;19.95;;;;;;;20.48;100.00;99184.91;5078465;28;20227;-76
2023/06/21 01:52:14;;;;;;;21.85;20.15;;;;;;;20.47;100.00;99172.41;5086900;28;20191;-76
2023/06/21 01:54:41;;;;;;;21.70;19.98;;;;;;;20.55;100.00;99188.84;5113042;28;20196;-76
2023/06/21 01:57:10;;;;;;;21.52;19.83;;;;;;;20.57;100.00;99210.34;5090454;28;20288;-76
2023/06/21 01:59:37;;;;;;;23.52;21.63;;;;;;;20.60;100.00;99196.13;5067085;28;20705;-75
2023/06/21 02:02:05;;;;;;;22.52;20.50;;;;;;;20.59;100.00;99187.16;5094542;28;20191;-75
2023/06/21 02:04:33;;;;;;;21.60;19.98;;;;;;;20.59;100.00;99180.91;5074178;28;20265;-76
2023/06/21 02:07:02;;;;;;;22.42;20.60;;;;;;;20.60;100.00;99190.69;5084919;28;20200;-76
2023/06/21 02:09:30;;;;;;;21.95;20.05;;;;;;;20.63;100.00;99198.25;5074880;28;20301;-75
2023/06/21 02:11:56;;;;;;;20.80;19.20;;;;;;;20.63;100.00;99193.63;5092155;28;20195;-75
2023/06/21 02:14:26;;;;;;;21.23;19.70;;;;;;;20.56;100.00;99182.31;5091299;28;20231;-75
2023/06/21 02:16:52;;;;;;;20.95;19.38;;;;;;;20.51;100.00;99179.66;5090848;28;20704;-75
2023/06/21 02:19:19;;;;;;;21.60;19.55;;;;;;;20.52;100.00;99164.16;5089190;28;20196;-75
2023/06/21 02:21:46;;;;;;;22.33;20.23;;;;;;;20.50;100.00;99185.41;5091496;28;20192;-75
2023/06/21 02:24:13;;;;;;;22.13;20.15;;;;;;;20.46;100.00;99182.47;5092109;28;20295;-75
2023/06/21 02:26:40;;;;;;;20.85;19.17;;;;;;;20.42;100.00;99177.91;5090584;28;20287;-77
2023/06/21 02:29:10;;;;;;;21.23;19.27;;;;;;;20.43;100.00;99183.06;5090816;28;20216;-77
2023/06/21 02:31:38;;;;;;;21.60;19.73;;;;;;;20.42;100.00;99178.72;5090239;28;20219;-76
2023/06/21 02:34:04;;;;;;;21.38;19.67;;;;;;;20.42;100.00;99173.28;5091341;28;20250;-75
2023/06/21 02:36:31;;;;;;;20.88;19.17;;;;;;;20.42;100.00;99181.44;5091159;28;20200;-75
2023/06/21 02:38:58;;;;;;;22.02;20.02;;;;;;;20.40;100.00;99180.09;5088300;28;20198;-75
2023/06/21 02:41:25;;;;;;;21.45;19.85;;;;;;;20.46;100.00;99181.66;5088029;28;20199;-77
2023/06/21 02:43:52;;;;;;;22.05;20.15;;;;;;;20.46;100.00;99177.03;5090172;28;20200;-76
2023/06/21 02:46:20;;;;;;;22.05;20.25;;;;;;;20.46;100.00;99171.59;5086272;28;20192;-75
2023/06/21 02:48:47;;;;;;;22.40;20.60;;;;;;;20.52;100.00;99183.22;5091677;28;20189;-76
2023/06/21 02:51:14;;;;;;;21.75;19.98;;;;;;;20.52;100.00;99196.81;5085926;28;20193;-76
2023/06/21 02:53:40;;;;;;;22.30;20.42;;;;;;;20.54;100.00;99208.19;5087229;28;20734;-78
2023/06/21 02:56:07;;;;;;;21.13;19.48;;;;;;;20.58;100.00;99195.59;5091474;28;20220;-76
2023/06/21 02:58:34;;;;;;;22.02;20.33;;;;;;;20.62;100.00;99194.72;5090195;28;20580;-75
2023/06/21 03:01:02;;;;;;;21.90;20.25;;;;;;;20.62;100.00;99202.09;5076522;28;20196;-76
2023/06/21 03:03:29;;;;;;;22.60;20.80;;;;;;;20.64;100.00;99191.72;5087075;28;20235;-76
2023/06/21 03:05:58;;;;;;;21.50;19.90;;;;;;;20.71;100.00;99197.59;5091128;28;20192;-76
2023/06/21 03:08:25;;;;;;;21.38;19.77;;;;;;;20.70;100.00;99185.09;5087976;28;20200;-76
2023/06/21 03:10:52;;;;;;;22.27;20.40;;;;;;;20.70;100.00;99182.38;5091266;28;20189;-76
2023/06/21 03:13:19;;;;;;;21.70;19.80;;;;;;;20.67;100.00;99174.78;5090166;28;20249;-76
2023/06/21 03:15:45;;;;;;;21.35;19.80;;;;;;;20.72;100.00;99171.19;5074140;28;20255;-76
2023/06/21 03:18:13;;;;;;;21.83;19.95;;;;;;;20.74;100.00;99153.44;5069720;28;20307;-76
2023/06/21 03:20:40;;;;;;;21.50;19.85;;;;;;;20.74;100.00;99150.72;5067290;28;20202;-76
2023/06/21 03:23:06;;;;;;;22.17;20.35;;;;;;;20.73;100.00;99145.56;5074587;28;20659;-75
2023/06/21 03:25:34;;;;;;;22.13;20.42;;;;;;;20.76;100.00;99148.53;5070281;28;20222;-75
2023/06/21 03:28:00;;;;;;;21.67;19.98;;;;;;;20.85;100.00;99163.06;5088326;28;20675;-75
2023/06/21 03:30:28;;;;;;;22.08;20.33;;;;;;;20.94;100.00;99165.94;5085417;28;20186;-75
2023/06/21 03:32:57;;;;;;;21.75;19.95;;;;;;;21.03;100.00;99164.13;5091384;28;20541;-76
2023/06/21 03:35:24;;;;;;;22.17;20.38;;;;;;;21.12;100.00;99164.25;5081427;28;20200;-76
2023/06/21 03:37:51;;;;;;;21.48;19.73;;;;;;;21.18;100.00;99166.63;5090977;28;20209;-76
2023/06/21 03:40:23;;;;;;;22.02;20.23;;;;;;;21.28;100.00;99151.97;5092541;28;20208;-76
2023/06/21 03:42:50;;;;;;;22.50;20.60;;;;;;;21.31;100.00;99162.28;5084778;28;20211;-76
2023/06/21 03:45:17;;;;;;;23.33;21.35;;;;;;;21.38;100.00;99146.34;5078487;28;20196;-77
2023/06/21 03:47:49;;;;;;;23.00;21.05;;;;;;;21.41;100.00;99151.22;5093883;28;20623;-76
2023/06/21 03:50:17;;;;;;;21.95;20.35;;;;;;;21.37;100.00;99156.44;5093728;28;20234;-76
2023/06/21 03:52:45;;;;;;;22.88;20.88;;;;;;;21.39;100.00;99154.22;5093708;28;20192;-77
2023/06/21 03:55:14;;;;;;;23.67;21.88;;;;;;;21.45;100.00;99157.66;5094452;28;20200;-77
2023/06/21 03:57:41;;;;;;;23.27;21.27;;;;;;;21.49;100.00;99158.66;5094863;28;20219;-77
2023/06/21 04:00:10;;;;;;;22.35;20.65;;;;;;;21.55;100.00;99167.56;5093818;28;20304;-76
2023/06/21 04:02:47;;;;;;;22.08;20.13;;;;;;;21.61;100.00;99169.06;5093438;28;20232;-77
2023/06/21 04:05:14;;;;;;;22.10;20.20;;;;;;;21.68;100.00;99172.19;5093802;28;20202;-76
2023/06/21 04:07:41;;;;;;;22.45;20.52;;;;;;;21.77;100.00;99163.00;5088454;28;20584;-76
2023/06/21 04:10:09;;;;;;;22.30;20.50;;;;;;;21.92;100.00;99135.44;5093917;28;20287;-75
2023/06/21 04:12:36;;;;;;;22.98;21.17;;;;;;;21.99;100.00;99117.84;5081582;28;20651;-76
2023/06/21 04:15:05;;;;;;;21.70;19.90;;;;;;;22.01;100.00;99112.91;5076842;28;20207;-76
2023/06/21 04:17:35;;;;;;;21.92;20.13;;;;;;;22.00;100.00;99114.81;5093347;28;20224;-76
2023/06/21 04:20:11;;;;;;;22.30;20.33;;;;;;;22.07;100.00;99125.34;5088346;28;20193;-76
2023/06/21 04:22:42;;;;;;;22.08;20.33;;;;;;;22.11;100.00;99129.88;5093313;28;20573;-76
2023/06/21 04:25:09;;;;;;;21.65;19.95;;;;;;;22.21;100.00;99139.75;5083498;28;20277;-77
2023/06/21 04:27:39;;;;;;;21.25;19.55;;;;;;;22.32;100.00;99158.28;5080626;28;20725;-76
2023/06/21 04:30:09;;;;;;;21.02;19.42;;;;;;;22.44;100.00;99187.78;5088727;28;20201;-76
2023/06/21 04:32:44;;;;;;;21.02;19.35;;;;;;;22.51;100.00;99196.34;5090963;28;20192;-76
2023/06/21 04:35:15;;;;;;;20.67;18.98;;;;;;;22.60;100.00;99202.69;5094293;28;20198;-76
2023/06/21 04:37:46;;;;;;;20.90;19.30;;;;;;;22.74;100.00;99210.84;5091226;28;20267;-77
2023/06/21 04:40:16;;;;;;;20.90;19.10;;;;;;;22.83;100.00;99214.47;5094109;28;20196;-77
2023/06/21 04:42:45;;;;;;;21.10;19.20;;;;;;;22.93;100.00;99219.69;5094363;28;20668;-76
2023/06/21 04:45:16;;;;;;;20.77;19.08;;;;;;;23.00;100.00;99220.06;5086795;28;20222;-76
2023/06/21 04:47:46;;;;;;;20.13;18.40;;;;;;;23.08;100.00;99216.56;5093901;28;20682;-77
2023/06/21 04:50:16;;;;;;;21.08;19.27;;;;;;;23.16;100.00;99231.41;5093906;28;20196;-76
2023/06/21 04:52:48;;;;;;;22.65;20.52;;;;;;;23.20;100.00;99251.53;5094038;28;20650;-76
2023/06/21 04:55:17;;;;;;;21.58;19.67;;;;;;;23.25;100.00;99248.66;5093891;28;20274;-75
2023/06/21 04:57:46;;;;;;;22.20;20.40;;;;;;;23.35;100.00;99236.66;5093692;28;20629;-76
2023/06/21 05:00:14;;;;;;;22.38;20.55;;;;;;;23.49;100.00;99240.97;5093576;28;20255;-77
2023/06/21 05:02:41;;;;;;;21.48;19.88;;;;;;;23.68;100.00;99233.34;5096226;28;20756;-77
2023/06/21 05:05:08;;;;;;;21.00;19.40;;;;;;;23.87;100.00;99237.75;5111437;28;20275;-76
2023/06/21 05:07:37;;;;;;;21.17;19.40;;;;;;;23.97;100.00;99248.41;5105065;28;20379;-77
2023/06/21 05:10:08;;;;;;;22.48;20.67;;;;;;;24.11;100.00;99255.38;5109040;28;20257;-77
2023/06/21 05:12:35;;;;;;;21.35;19.63;;;;;;;24.18;100.00;99260.41;5101398;28;20204;-77
2023/06/21 05:15:03;;;;;;;21.83;20.10;;;;;;;24.30;100.00;99263.34;5105813;28;20624;-76
2023/06/21 05:17:30;;;;;;;21.45;19.65;;;;;;;24.53;100.00;99258.56;5108877;28;20233;-76
2023/06/21 05:19:57;;;;;;;21.65;20.05;;;;;;;24.68;100.00;99249.09;5105388;28;20197;-77
2023/06/21 05:22:23;;;;;;;21.40;19.58;;;;;;;24.93;100.00;99254.56;5104796;28;20192;-78
2023/06/21 05:24:50;;;;;;;21.30;19.60;;;;;;;25.18;100.00;99258.44;5113747;28;20225;-77
2023/06/21 05:27:17;;;;;;;20.85;19.20;;;;;;;25.26;100.00;99254.88;5113614;28;20553;-77
2023/06/21 05:29:43;;;;;;;21.33;19.55;;;;;;;25.55;100.00;99261.63;5113178;28;20208;-76
2023/06/21 05:32:10;;;;;;;20.92;19.25;;;;;;;25.96;100.00;99250.00;5113814;28;20684;-77
2023/06/21 05:34:37;;;;;;;21.95;20.33;;;;;;;26.33;100.00;99245.63;5103963;28;20202;-77
2023/06/21 05:37:04;;;;;;;20.85;19.05;;;;;;;26.51;100.00;99244.38;5113122;28;20284;-79
2023/06/21 05:39:30;;;;;;;20.77;18.98;;;;;;;26.61;100.00;99254.97;5113316;28;20199;-80
2023/06/21 05:41:57;;;;;;;20.08;18.58;;;;;;;26.58;100.00;99248.22;5112203;28;20187;-79
2023/06/21 05:44:24;;;;;;;19.90;18.38;;;;;;;26.48;100.00;99251.34;5111952;28;20188;-79
2023/06/21 05:46:50;;;;;;;20.13;18.30;;;;;;;26.46;100.00;99250.88;5112853;28;20692;-80
2023/06/21 05:49:18;;;;;;;19.55;17.95;;;;;;;26.40;100.00;99254.16;5112824;28;20195;-79
2023/06/21 05:51:44;;;;;;;19.95;18.33;;;;;;;26.33;100.00;99249.19;5112758;28;20256;-79
2023/06/21 05:54:12;;;;;;;19.85;18.38;;;;;;;26.36;100.00;99259.53;5109773;28;20252;-78
2023/06/21 05:56:41;;;;;;;20.73;18.92;;;;;;;26.47;100.00;99268.16;5102548;28;20606;-78
2023/06/21 05:59:08;;;;;;;20.23;18.65;;;;;;;26.78;100.00;99273.28;5111418;28;20223;-79
2023/06/21 06:01:34;;;;;;;19.83;18.33;;;;;;;27.32;100.00;99283.19;5112433;28;20195;-80
2023/06/21 06:04:01;;;;;;;19.15;17.55;;;;;;;27.88;100.00;99287.13;5107787;28;20238;-79
2023/06/21 06:06:36;;;;;;;20.17;18.27;;;;;;;28.20;100.00;99285.47;5094194;28;20196;-80
2023/06/21 06:09:04;;;;;;;19.35;17.95;;;;;;;28.39;100.00;99288.44;5075466;28;20195;-78
2023/06/21 06:11:31;;;;;;;20.35;18.58;;;;;;;28.56;100.00;99287.38;5093349;28;20193;-80
2023/06/21 06:13:58;;;;;;;19.17;17.65;;;;;;;28.66;100.00;99284.16;5092464;28;20199;-79
2023/06/21 06:16:24;;;;;;;20.55;18.80;;;;;;;28.73;100.00;99287.16;5087065;28;20193;-79
2023/06/21 06:18:51;;;;;;;20.90;19.20;;;;;;;28.76;100.00;99285.66;5091113;28;20220;-79
2023/06/21 06:21:21;;;;;;;19.75;18.08;;;;;;;28.86;100.00;99288.75;5082654;28;20188;-80
2023/06/21 06:23:50;;;;;;;20.05;18.48;;;;;;;28.93;100.00;99293.66;5112272;28;20195;-80
2023/06/21 06:26:24;;;;;;;19.35;17.73;;;;;;;29.05;100.00;99290.88;5096386;28;20279;-79
2023/06/21 06:28:51;;;;;;;19.33;17.83;;;;;;;29.15;100.00;99290.38;5094391;28;20204;-79
2023/06/21 06:31:25;;;;;;;19.85;18.25;;;;;;;29.09;100.00;99288.19;5102940;28;20233;-79
2023/06/21 06:33:53;;;;;;;20.38;18.77;;;;;;;29.10;100.00;99290.63;5112499;28;20222;-79
2023/06/21 06:36:20;;;;;;;20.55;18.75;;;;;;;29.23;100.00;99291.38;5111829;28;20191;-79
2023/06/21 06:38:50;;;;;;;19.92;18.33;;;;;;;29.35;100.00;99287.81;5112073;28;20216;-79
2023/06/21 06:41:17;;;;;;;20.33;18.73;;;;;;;29.37;100.00;99291.78;5111859;28;20199;-80
2023/06/21 06:43:45;;;;;;;18.42;16.98;;;;;;;29.37;100.00;99294.56;5112014;28;20666;-79
2023/06/21 06:46:11;;;;;;;18.40;16.90;;;;;;;29.43;100.00;99298.69;5110248;28;20244;-80
2023/06/21 06:48:38;;;;;;;19.27;17.70;;;;;;;29.52;100.00;99304.84;5111966;28;20654;-79
2023/06/21 06:51:05;;;;;;;19.08;17.45;;;;;;;29.55;100.00;99306.88;5111495;28;20206;-80
2023/06/21 06:53:32;;;;;;;18.70;17.30;;;;;;;29.77;100.00;99299.19;5111671;28;20200;-79
2023/06/21 06:55:59;;;;;;;18.73;17.33;;;;;;;29.97;100.00;99309.19;5111378;28;20240;-79
2023/06/21 06:58:27;;;;;;;17.70;16.38;;;;;;;30.19;100.00;99314.88;5111430;28;20680;-79
2023/06/21 07:00:55;;;;;;;17.40;16.10;;;;;;;30.44;100.00;99314.69;5098319;28;20245;-79
2023/06/21 07:03:21;;;;;;;18.83;17.23;;;;;;;30.63;100.00;99313.97;5084967;28;20229;-78
2023/06/21 07:05:48;;;;;;;17.98;16.52;;;;;;;30.88;100.00;99318.91;5092240;28;20276;-79
2023/06/21 07:08:16;;;;;;;17.17;15.75;;;;;;;31.21;100.00;99321.22;5089296;28;20195;-79
2023/06/21 07:10:43;;;;;;;18.50;17.02;;;;;;;31.40;100.00;99318.41;5093318;28;20201;-79
2023/06/21 07:13:09;;;;;;;18.38;16.67;;;;;;;31.74;100.00;99325.03;5089345;28;20261;-79
2023/06/21 07:15:36;;;;;;;17.77;16.38;;;;;;;32.02;100.00;99324.75;5076742;28;20279;-79
2023/06/21 07:18:03;;;;;;;17.15;15.75;;;;;;;32.19;100.00;99324.31;5080824;28;20239;-78
2023/06/21 07:20:30;;;;;;;18.17;16.67;;;;;;;32.20;100.00;99327.84;5062656;28;20208;-79
2023/06/21 07:22:58;;;;;;;17.10;15.60;;;;;;;32.12;100.00;99329.72;5080635;28;20197;-79
2023/06/21 07:25:25;;;;;;;17.48;15.93;;;;;;;31.90;100.00;99334.06;5080039;28;20196;-79
2023/06/21 07:27:51;;;;;;;18.48;17.08;;;;;;;31.79;100.00;99335.81;5096420;28;20207;-78
2023/06/21 07:30:20;;;;;;;18.88;17.48;;;;;;;31.50;100.00;99350.25;5095202;28;20541;-79
2023/06/21 07:32:47;;;;;;;17.83;16.52;;;;;;;31.28;100.00;99346.25;5102375;28;20192;-79
2023/06/21 07:35:15;;;;;;;17.85;16.52;;;;;;;30.69;100.00;99354.81;5098129;28;20199;-79
2023/06/21 07:37:43;;;;;;;17.23;15.70;;;;;;;30.86;100.00;99348.06;5092580;28;20239;-79
2023/06/21 07:40:10;;;;;;;18.60;17.15;;;;;;;30.73;100.00;99352.13;5111723;28;20200;-79
2023/06/21 07:42:38;;;;;;;17.30;16.10;;;;;;;30.94;100.00;99347.06;5110987;28;20184;-79
2023/06/21 07:45:07;;;;;;;18.45;16.95;;;;;;;30.81;100.00;99351.13;5111187;28;20606;-79
2023/06/21 07:47:34;;;;;;;19.00;17.60;;;;;;;30.69;100.00;99342.94;5111106;28;20191;-79
2023/06/21 07:50:01;;;;;;;17.90;16.67;;;;;;;30.75;100.00;99344.28;5111594;28;20844;-79
2023/06/21 07:52:47;;;;;;;18.27;16.60;;;;;;;30.78;100.00;99330.53;5108065;28;20223;-79
2023/06/21 07:55:14;;;;;;;19.27;17.83;;;;;;;30.83;100.00;99338.56;5111025;28;20203;-79
2023/06/21 07:57:40;;;;;;;19.25;17.70;;;;;;;30.78;100.00;99338.03;5097154;28;20259;-80
2023/06/21 08:00:14;;;;;;;18.10;16.60;;;;;;;30.76;100.00;99332.03;5099467;28;20235;-79
2023/06/21 08:02:44;;;;;;;18.60;17.10;;;;;;;30.95;100.00;99321.81;5094417;28;20323;-79
2023/06/21 08:05:13;;;;;;;18.00;16.60;;;;;;;31.17;100.00;99330.63;5099159;28;20219;-79
2023/06/21 08:07:40;;;;;;;18.75;17.25;;;;;;;31.08;100.00;99325.28;5095608;28;20203;-79
2023/06/21 08:10:08;;;;;;;18.23;16.75;;;;;;;30.75;100.00;99331.22;5097332;28;20192;-80
2023/06/21 08:12:35;;;;;;;18.25;16.75;;;;;;;30.82;100.00;99325.88;5107659;28;20234;-79
2023/06/21 08:15:04;;;;;;;18.65;16.92;;;;;;;31.17;100.00;99336.16;5114918;28;20187;-78
2023/06/21 08:17:31;;;;;;;18.55;17.05;;;;;;;31.28;100.00;99332.44;5114393;28;20639;-78
2023/06/21 08:19:58;;;;;;;18.15;16.85;;;;;;;30.96;100.00;99339.22;5108516;28;20199;-79
2023/06/21 08:22:25;;;;;;;17.67;16.02;;;;;;;31.21;100.00;99342.56;5109642;28;20194;-79
2023/06/21 08:24:54;;;;;;;17.75;16.13;;;;;;;31.37;100.00;99346.84;5102543;28;20207;-79
2023/06/21 08:27:21;;;;;;;17.02;15.73;;;;;;;31.46;100.00;99343.84;5104960;28;20191;-79
2023/06/21 08:29:47;;;;;;;15.52;14.10;;;;;;;31.73;100.00;99342.81;5095904;28;20660;-78
2023/06/21 08:32:15;;;;;;;15.18;13.85;;;;;;;31.74;100.00;99341.66;5095088;28;20672;-78
2023/06/21 08:34:42;;;;;;;15.73;14.23;;;;;;;32.02;100.00;99340.56;5091713;28;20191;-79
2023/06/21 08:37:09;;;;;;;15.30;13.80;;;;;;;32.20;100.00;99336.97;5101432;28;20238;-79
2023/06/21 08:39:35;;;;;;;14.95;13.75;;;;;;;32.44;100.00;99335.78;5097471;28;20268;-79
2023/06/21 08:42:02;;;;;;;16.05;14.75;;;;;;;32.65;100.00;99338.13;5097806;28;20184;-79
2023/06/21 08:44:30;;;;;;;15.82;14.45;;;;;;;32.57;98.03;99331.63;5108045;28;20590;-78
2023/06/21 08:47:00;;;;;;;15.88;14.35;;;;;;;32.06;99.99;99333.13;5096742;28;20198;-80
2023/06/21 08:49:29;;;;;;;15.45;14.07;;;;;;;31.79;100.00;99329.47;5114923;28;20222;-79
2023/06/21 08:51:58;;;;;;;15.45;14.20;;;;;;;32.08;100.00;99319.72;5090428;28;20238;-79
2023/06/21 08:54:28;;;;;;;16.45;14.90;;;;;;;32.22;98.94;99329.09;5076525;28;20199;-79
2023/06/21 08:57:03;;;;;;;15.90;14.57;;;;;;;32.41;98.13;99333.75;5071344;28;20208;-78
2023/06/21 09:00:15;;;;;;;15.07;13.77;;;;;;;32.47;97.10;99332.28;5081940;28;20234;-79
2023/06/21 09:02:46;;;;;;;13.68;12.35;;;;;;;32.44;93.62;99341.31;5091867;28;20575;-80
2023/06/21 09:05:17;;;;;;;13.20;11.82;;;;;;;32.50;89.37;99341.81;5098692;28;20262;-78
2023/06/21 09:07:43;;;;;;;13.45;12.23;;;;;;;32.83;89.12;99346.69;5078665;28;20283;-78
2023/06/21 09:10:15;;;;;;;15.27;13.15;;;;;;;32.93;89.82;99348.81;5093894;28;20233;-79
2023/06/21 09:12:42;;;;;;;14.43;13.15;;;;;;;32.83;90.36;99346.69;5113113;28;20581;-79
2023/06/21 09:15:09;;;;;;;13.93;12.82;;;;;;;32.77;89.32;99337.88;5094485;28;20237;-79
2023/06/21 09:17:37;;;;;;;14.45;11.82;;;;;;;32.78;87.06;99338.69;5093897;28;20191;-79
2023/06/21 09:20:04;;;;;;;10.88;9.77;;;;;;;32.71;82.68;99337.41;5101055;28;20189;-78
2023/06/21 09:22:31;;;;;;;10.98;9.98;;;;;;;32.70;81.44;99321.97;5105087;28;20662;-79
2023/06/21 09:24:58;;;;;;;10.73;8.73;;;;;;;32.89;79.08;99337.69;5078524;28;20188;-79
2023/06/21 09:27:25;;;;;;;10.25;7.05;;;;;;;32.84;73.97;99335.22;5102372;28;20584;-79
2023/06/21 09:29:52;;;;;;;8.85;7.40;;;;;;;33.10;73.25;99326.06;5101919;28;20196;-78
2023/06/21 09:32:18;;;;;;;10.82;7.03;;;;;;;32.77;73.12;99326.78;5104238;28;20218;-79
2023/06/21 09:34:45;;;;;;;10.07;7.32;;;;;;;32.86;74.37;99335.63;5102687;28;20196;-79
2023/06/21 09:37:35;;;;;;;8.48;6.75;;;;;;;33.10;68.57;99332.41;5102529;28;20188;-79
2023/06/21 09:40:03;;;;;;;11.32;8.55;;;;;;;33.12;71.32;99332.03;5104084;28;20208;-79
2023/06/21 09:42:29;;;;;;;11.65;8.18;;;;;;;33.11;70.62;99339.56;5104649;28;20192;-79
2023/06/21 09:44:56;;;;;;;9.18;7.47;;;;;;;32.89;70.85;99334.91;5089120;28;20227;-79
2023/06/21 09:47:29;;;;;;;7.70;6.82;;;;;;;33.09;69.92;99332.78;5100317;28;20631;-79
2023/06/21 09:49:56;;;;;;;9.65;6.95;;;;;;;32.98;69.85;99324.31;5105233;28;20214;-79
2023/06/21 09:52:23;;;;;;;8.60;7.60;;;;;;;33.18;71.34;99330.53;5101915;28;20245;-80
2023/06/21 09:54:50;;;;;;;12.40;7.28;;;;;;;33.40;70.10;99328.84;5104465;28;20199;-79
2023/06/21 09:57:17;;;;;;;8.32;7.40;;;;;;;33.06;70.57;99334.34;5105933;28;20193;-79
2023/06/21 09:59:47;;;;;;;9.73;7.78;;;;;;;32.62;72.03;99338.81;5106783;28;20219;-79
2023/06/21 10:02:14;;;;;;;8.48;7.38;;;;;;;32.50;70.91;99337.06;5107120;28;20321;-79
2023/06/21 10:04:42;;;;;;;8.02;7.10;;;;;;;32.69;72.64;99342.53;5087578;28;20227;-79
2023/06/21 10:07:12;;;;;;;9.57;5.90;;;;;;;32.74;65.64;99341.41;5085223;28;20192;-79
2023/06/21 10:09:39;;;;;;;6.55;5.25;;;;;;;33.24;63.47;99331.00;5107555;28;20222;-80
2023/06/21 10:12:09;;;;;;;10.27;6.00;;;;;;;33.45;64.19;99332.09;5112329;28;20192;-79
2023/06/21 10:14:36;;;;;;;9.68;5.60;;;;;;;33.31;65.23;99334.69;5107767;28;20189;-79
2023/06/21 10:17:03;;;;;;;7.97;5.88;;;;;;;33.27;63.62;99335.81;5104743;28;20191;-79
2023/06/21 10:19:29;;;;;;;9.43;6.22;;;;;;;33.11;64.00;99333.22;5102442;28;20243;-80
2023/06/21 10:22:07;;;;;;;21.75;6.75;;;;;;;32.73;65.53;99337.03;5107546;28;20195;-78
2023/06/21 10:24:46;;;;;;;13.27;5.88;;;;;;;32.75;65.28;99343.03;5107561;28;20285;-79
2023/06/21 10:27:14;;;;;;;7.95;5.75;;;;;;;33.20;63.53;99336.53;5106512;28;20207;-80
2023/06/21 10:29:43;;;;;;;10.23;6.40;;;;;;;32.99;63.48;99328.69;5107688;28;20192;-79
2023/06/21 10:32:10;;;;;;;8.80;6.22;;;;;;;33.31;62.29;99317.22;5106408;28;20188;-78
2023/06/21 10:34:59;;;;;;;8.35;6.30;;;;;;;33.50;63.67;99325.41;5110993;28;20678;-79
2023/06/21 10:37:53;;;;;;;8.75;6.45;;;;;;;33.70;61.48;99321.25;5112177;28;20195;-79
2023/06/21 10:40:21;;;;;;;8.18;6.93;;;;;;;33.69;63.99;99330.75;5110500;28;20192;-80
2023/06/21 10:42:50;;;;;;;11.45;7.03;;;;;;;33.74;63.73;99316.53;5112349;28;20203;-80
2023/06/21 10:45:17;;;;;;;12.77;7.55;;;;;;;33.51;61.94;99321.41;5108388;28;20196;-79
2023/06/21 10:47:47;;;;;;;8.38;7.07;;;;;;;34.13;63.45;99322.47;5092003;28;20234;-79
2023/06/21 10:50:15;;;;;;;8.65;7.53;;;;;;;34.59;64.30;99327.59;5094234;28;20202;-80
2023/06/21 10:52:43;;;;;;;10.02;7.72;;;;;;;34.40;63.95;99314.75;5105028;28;20196;-79
2023/06/21 10:55:13;;;;;;;12.68;7.68;;;;;;;34.09;60.56;99326.41;5100110;28;20194;-79
2023/06/21 10:57:40;;;;;;;10.57;6.95;;;;;;;34.59;59.08;99322.03;5098231;28;20201;-80
2023/06/21 11:00:08;;;;;;;10.05;6.97;;;;;;;34.29;59.72;99325.81;5105988;28;20223;-79
2023/06/21 11:02:35;;;;;;;9.43;4.90;;;;;;;34.01;57.04;99320.00;5107114;28;20188;-80
2023/06/21 11:05:18;;;;;;;9.70;5.47;;;;;;;34.43;58.67;99323.16;5084481;28;20220;-80
2023/06/21 11:07:50;;;;;;;9.07;5.82;;;;;;;34.36;56.29;99320.31;5088350;28;20236;-80
2023/06/21 11:10:20;;;;;;;11.60;6.22;;;;;;;34.48;54.51;99322.00;5077890;28;20192;-79
2023/06/21 11:12:47;;;;;;;11.13;6.15;;;;;;;33.41;56.72;99325.66;5100339;28;20203;-80
2023/06/21 11:15:22;;;;;;;12.30;5.53;;;;;;;33.74;56.14;99326.84;5093836;28;20194;-80
2023/06/21 11:17:56;;;;;;;11.45;5.80;;;;;;;34.41;56.79;99322.72;5110054;28;20218;-79
2023/06/21 11:20:24;;;;;;;10.85;6.60;;;;;;;35.15;56.41;99329.94;5109825;28;20676;-80
2023/06/21 11:23:08;;;;;;;16.83;5.40;;;;;;;35.25;54.57;99329.22;5111829;28;20726;-80